createdAt,value
2023-04-18T00:00:38.000Z,8.741935483870968
2023-04-18T00:01:41.000Z,8.741935483870968
2023-04-18T00:02:43.000Z,8.64516129032258
2023-04-18T00:03:45.000Z,8.741935483870968
2023-04-18T00:04:47.000Z,8.741935483870968
2023-04-18T00:05:49.000Z,8.741935483870968
2023-04-18T00:06:52.000Z,8.741935483870968
2023-04-18T00:07:54.000Z,8.741935483870968
2023-04-18T00:08:56.000Z,8.741935483870968
2023-04-18T00:09:58.000Z,8.741935483870968
2023-04-18T00:11:01.000Z,8.741935483870968
2023-04-18T00:12:03.000Z,8.741935483870968
2023-04-18T00:13:05.000Z,8.741935483870968
2023-04-18T00:14:07.000Z,8.741935483870968
2023-04-18T00:15:10.000Z,8.741935483870968
2023-04-18T00:16:12.000Z,8.741935483870968
2023-04-18T00:17:14.000Z,8.741935483870968
2023-04-18T00:18:16.000Z,8.741935483870968
2023-04-18T00:19:19.000Z,8.741935483870968
2023-04-18T00:20:21.000Z,8.741935483870968
2023-04-18T00:21:23.000Z,8.741935483870968
2023-04-18T00:22:26.000Z,8.741935483870968
2023-04-18T00:23:28.000Z,8.741935483870968
2023-04-18T00:24:30.000Z,8.838709677419356
2023-04-18T00:25:32.000Z,8.741935483870968
2023-04-18T00:26:35.000Z,8.838709677419356
2023-04-18T00:27:37.000Z,8.838709677419356
2023-04-18T00:28:39.000Z,8.838709677419356
2023-04-18T00:29:41.000Z,8.741935483870968
2023-04-18T00:30:44.000Z,8.741935483870968
2023-04-18T00:31:46.000Z,8.838709677419356
2023-04-18T00:32:48.000Z,8.838709677419356
2023-04-18T00:33:50.000Z,8.838709677419356
2023-04-18T00:34:53.000Z,8.838709677419356
2023-04-18T00:35:55.000Z,8.838709677419356
2023-04-18T00:36:57.000Z,8.838709677419356
2023-04-18T00:37:59.000Z,8.838709677419356
2023-04-18T00:39:01.000Z,8.838709677419356
2023-04-18T00:40:04.000Z,8.838709677419356
2023-04-18T00:41:06.000Z,8.838709677419356
2023-04-18T00:42:08.000Z,8.838709677419356
2023-04-18T00:43:10.000Z,8.838709677419356
2023-04-18T00:44:13.000Z,8.838709677419356
2023-04-18T00:45:15.000Z,8.838709677419356
2023-04-18T00:46:17.000Z,8.838709677419356
2023-04-18T00:47:19.000Z,8.838709677419356
2023-04-18T00:48:22.000Z,8.838709677419356
2023-04-18T00:49:24.000Z,8.935483870967744
2023-04-18T00:50:26.000Z,8.935483870967744
2023-04-18T00:51:28.000Z,8.935483870967744
2023-04-18T00:52:31.000Z,8.935483870967744
2023-04-18T00:53:33.000Z,8.935483870967744
2023-04-18T00:54:35.000Z,8.935483870967744
2023-04-18T00:55:37.000Z,8.935483870967744
2023-04-18T00:56:40.000Z,8.935483870967744
2023-04-18T00:57:42.000Z,8.935483870967744
2023-04-18T00:58:44.000Z,8.935483870967744
2023-04-18T00:59:46.000Z,9.032258064516132
2023-04-18T01:00:49.000Z,8.935483870967744
2023-04-18T01:01:51.000Z,8.935483870967744
2023-04-18T01:02:53.000Z,8.935483870967744
2023-04-18T01:03:55.000Z,8.935483870967744
2023-04-18T01:04:58.000Z,8.935483870967744
2023-04-18T01:06:00.000Z,8.935483870967744
2023-04-18T01:07:02.000Z,8.935483870967744
2023-04-18T01:08:04.000Z,8.935483870967744
2023-04-18T01:09:06.000Z,8.935483870967744
2023-04-18T01:10:09.000Z,8.935483870967744
2023-04-18T01:11:11.000Z,8.935483870967744
2023-04-18T01:12:13.000Z,8.935483870967744
2023-04-18T01:13:15.000Z,8.935483870967744
2023-04-18T01:14:18.000Z,8.935483870967744
2023-04-18T01:15:20.000Z,8.935483870967744
2023-04-18T01:16:22.000Z,9.032258064516132
2023-04-18T01:17:24.000Z,9.032258064516132
2023-04-18T01:18:27.000Z,8.935483870967744
2023-04-18T01:19:29.000Z,8.935483870967744
2023-04-18T01:20:31.000Z,8.935483870967744
2023-04-18T01:21:33.000Z,9.032258064516132
2023-04-18T01:22:36.000Z,9.032258064516132
2023-04-18T01:23:38.000Z,8.935483870967744
2023-04-18T01:24:40.000Z,9.032258064516132
2023-04-18T01:25:42.000Z,9.032258064516132
2023-04-18T01:26:45.000Z,9.032258064516132
2023-04-18T01:27:47.000Z,9.032258064516132
2023-04-18T01:28:54.000Z,9.032258064516132
2023-04-18T01:29:56.000Z,9.032258064516132
2023-04-18T01:30:59.000Z,9.032258064516132
2023-04-18T01:32:01.000Z,9.12903225806452
2023-04-18T01:33:03.000Z,9.032258064516132
2023-04-18T01:34:05.000Z,8.935483870967744
2023-04-18T01:35:08.000Z,9.032258064516132
2023-04-18T01:36:10.000Z,9.032258064516132
2023-04-18T01:37:12.000Z,8.935483870967744
2023-04-18T01:38:14.000Z,9.032258064516132
2023-04-18T01:39:17.000Z,9.032258064516132
2023-04-18T01:40:19.000Z,9.032258064516132
2023-04-18T01:41:21.000Z,9.032258064516132
2023-04-18T01:42:23.000Z,9.032258064516132
2023-04-18T01:43:26.000Z,9.12903225806452
2023-04-18T01:44:28.000Z,9.032258064516132
2023-04-18T01:45:30.000Z,9.12903225806452
2023-04-18T01:46:32.000Z,9.032258064516132
2023-04-18T01:47:35.000Z,9.12903225806452
2023-04-18T01:48:37.000Z,9.12903225806452
2023-04-18T01:49:39.000Z,9.12903225806452
2023-04-18T01:50:42.000Z,9.12903225806452
2023-04-18T01:51:44.000Z,9.032258064516132
2023-04-18T01:52:46.000Z,9.12903225806452
2023-04-18T01:53:48.000Z,9.12903225806452
2023-04-18T01:54:50.000Z,9.12903225806452
2023-04-18T01:55:53.000Z,9.032258064516132
2023-04-18T01:56:55.000Z,9.12903225806452
2023-04-18T01:57:57.000Z,9.12903225806452
2023-04-18T01:58:59.000Z,9.12903225806452
2023-04-18T02:00:02.000Z,9.12903225806452
2023-04-18T02:01:04.000Z,9.12903225806452
2023-04-18T02:02:06.000Z,9.12903225806452
2023-04-18T02:03:08.000Z,9.12903225806452
2023-04-18T02:04:11.000Z,9.12903225806452
2023-04-18T02:05:13.000Z,9.12903225806452
2023-04-18T02:06:15.000Z,9.225806451612907
2023-04-18T02:07:17.000Z,9.12903225806452
2023-04-18T02:08:20.000Z,9.225806451612907
2023-04-18T02:09:22.000Z,9.12903225806452
2023-04-18T02:10:24.000Z,9.12903225806452
2023-04-18T02:11:26.000Z,9.225806451612907
2023-04-18T02:12:29.000Z,9.225806451612907
2023-04-18T02:13:31.000Z,9.225806451612907
2023-04-18T02:14:33.000Z,9.225806451612907
2023-04-18T02:15:35.000Z,9.225806451612907
2023-04-18T02:16:38.000Z,9.225806451612907
2023-04-18T02:17:40.000Z,9.225806451612907
2023-04-18T02:18:42.000Z,9.322580645161295
2023-04-18T02:19:44.000Z,9.225806451612907
2023-04-18T02:20:47.000Z,9.225806451612907
2023-04-18T02:21:49.000Z,9.322580645161295
2023-04-18T02:22:56.000Z,9.225806451612907
2023-04-18T02:23:58.000Z,9.322580645161295
2023-04-18T02:25:01.000Z,9.322580645161295
2023-04-18T02:26:03.000Z,9.322580645161295
2023-04-18T02:27:05.000Z,9.322580645161295
2023-04-18T02:28:07.000Z,9.322580645161295
2023-04-18T02:29:10.000Z,9.419354838709683
2023-04-18T02:30:12.000Z,9.322580645161295
2023-04-18T02:31:14.000Z,9.419354838709683
2023-04-18T02:32:16.000Z,9.419354838709683
2023-04-18T02:33:19.000Z,9.419354838709683
2023-04-18T02:34:21.000Z,9.419354838709683
2023-04-18T02:35:23.000Z,9.516129032258071
2023-04-18T02:36:25.000Z,9.516129032258071
2023-04-18T02:37:28.000Z,9.516129032258071
2023-04-18T02:38:30.000Z,9.419354838709683
2023-04-18T02:39:32.000Z,9.612903225806459
2023-04-18T02:40:34.000Z,9.709677419354847
2023-04-18T02:41:37.000Z,9.806451612903235
2023-04-18T02:42:39.000Z,9.419354838709683
2023-04-18T02:43:41.000Z,8.451612903225804
2023-04-18T02:44:43.000Z,8.451612903225804
2023-04-18T02:45:46.000Z,8.548387096774192
2023-04-18T02:46:48.000Z,8.548387096774192
2023-04-18T02:47:50.000Z,8.64516129032258
2023-04-18T02:48:52.000Z,8.16129032258064
2023-04-18T02:49:55.000Z,8.354838709677416
2023-04-18T02:50:57.000Z,8.548387096774192
2023-04-18T02:51:59.000Z,8.354838709677416
2023-04-18T02:53:02.000Z,8.354838709677416
2023-04-18T02:54:04.000Z,8.548387096774192
2023-04-18T02:55:06.000Z,8.64516129032258
2023-04-18T02:56:08.000Z,8.258064516129028
2023-04-18T02:57:11.000Z,8.354838709677416
2023-04-18T02:58:13.000Z,8.451612903225804
2023-04-18T02:59:15.000Z,8.548387096774192
2023-04-18T03:00:18.000Z,8.741935483870968
2023-04-18T03:01:20.000Z,8.064516129032253
2023-04-18T03:02:22.000Z,7.967741935483865
2023-04-18T03:03:24.000Z,7.967741935483865
2023-04-18T03:04:27.000Z,7.967741935483865
2023-04-18T03:05:29.000Z,7.967741935483865
2023-04-18T03:06:31.000Z,7.967741935483865
2023-04-18T03:07:33.000Z,8.064516129032253
2023-04-18T03:08:36.000Z,8.064516129032253
2023-04-18T03:09:38.000Z,8.16129032258064
2023-04-18T03:10:40.000Z,8.16129032258064
2023-04-18T03:11:42.000Z,8.16129032258064
2023-04-18T03:12:45.000Z,8.258064516129028
2023-04-18T03:13:47.000Z,8.354838709677416
2023-04-18T03:14:49.000Z,8.451612903225804
2023-04-18T03:15:51.000Z,9.12903225806452
2023-04-18T03:16:54.000Z,8.258064516129028
2023-04-18T03:17:56.000Z,8.64516129032258
2023-04-18T03:18:58.000Z,8.451612903225804
2023-04-18T03:20:01.000Z,8.354838709677416
2023-04-18T03:21:03.000Z,8.354838709677416
2023-04-18T03:22:05.000Z,8.548387096774192
2023-04-18T03:23:07.000Z,8.64516129032258
2023-04-18T03:24:10.000Z,8.741935483870968
2023-04-18T03:25:12.000Z,8.838709677419356
2023-04-18T03:26:14.000Z,7.677419354838704
2023-04-18T03:27:16.000Z,7.677419354838704
2023-04-18T03:28:19.000Z,7.677419354838704
2023-04-18T03:29:21.000Z,7.774193548387091
2023-04-18T03:30:23.000Z,7.870967741935478
2023-04-18T03:31:25.000Z,7.967741935483865
2023-04-18T03:32:28.000Z,7.967741935483865
2023-04-18T03:33:30.000Z,8.258064516129028
2023-04-18T03:34:32.000Z,7.48387096774193
2023-04-18T03:35:34.000Z,7.48387096774193
2023-04-18T03:36:37.000Z,7.387096774193543
2023-04-18T03:37:39.000Z,7.48387096774193
2023-04-18T03:38:41.000Z,7.48387096774193
2023-04-18T03:39:43.000Z,7.48387096774193
2023-04-18T03:40:46.000Z,7.48387096774193
2023-04-18T03:41:48.000Z,7.387096774193543
2023-04-18T03:42:50.000Z,7.48387096774193
2023-04-18T03:43:52.000Z,7.387096774193543
2023-04-18T03:44:55.000Z,7.48387096774193
2023-04-18T03:45:57.000Z,7.48387096774193
2023-04-18T03:46:59.000Z,7.387096774193543
2023-04-18T03:48:01.000Z,7.387096774193543
2023-04-18T03:49:03.000Z,7.48387096774193
2023-04-18T03:50:06.000Z,7.48387096774193
2023-04-18T03:51:08.000Z,7.48387096774193
2023-04-18T03:52:10.000Z,7.48387096774193
2023-04-18T03:53:12.000Z,7.48387096774193
2023-04-18T03:54:15.000Z,7.48387096774193
2023-04-18T03:55:17.000Z,7.48387096774193
2023-04-18T03:56:19.000Z,7.48387096774193
2023-04-18T03:57:21.000Z,7.580645161290317
2023-04-18T03:58:24.000Z,7.48387096774193
2023-04-18T03:59:26.000Z,7.580645161290317
2023-04-18T04:00:28.000Z,7.580645161290317
2023-04-18T04:01:30.000Z,7.580645161290317
2023-04-18T04:02:33.000Z,7.580645161290317
2023-04-18T04:03:35.000Z,7.580645161290317
2023-04-18T04:04:37.000Z,7.580645161290317
2023-04-18T04:05:39.000Z,7.580645161290317
2023-04-18T04:06:42.000Z,7.580645161290317
2023-04-18T04:07:44.000Z,7.580645161290317
2023-04-18T04:08:46.000Z,7.580645161290317
2023-04-18T04:09:48.000Z,7.580645161290317
2023-04-18T04:10:51.000Z,7.580645161290317
2023-04-18T04:11:53.000Z,7.677419354838704
2023-04-18T04:12:55.000Z,7.677419354838704
2023-04-18T04:13:57.000Z,7.580645161290317
2023-04-18T04:14:59.000Z,7.580645161290317
2023-04-18T04:16:02.000Z,7.580645161290317
2023-04-18T04:17:04.000Z,7.580645161290317
2023-04-18T04:18:06.000Z,7.580645161290317
2023-04-18T04:19:08.000Z,7.580645161290317
2023-04-18T04:20:11.000Z,7.580645161290317
2023-04-18T04:21:13.000Z,7.677419354838704
2023-04-18T04:22:15.000Z,7.677419354838704
2023-04-18T04:23:17.000Z,7.580645161290317
2023-04-18T04:24:20.000Z,7.677419354838704
2023-04-18T04:25:22.000Z,7.677419354838704
2023-04-18T04:26:24.000Z,7.677419354838704
2023-04-18T04:27:26.000Z,7.580645161290317
2023-04-18T04:28:29.000Z,7.580645161290317
2023-04-18T04:29:31.000Z,7.677419354838704
2023-04-18T04:30:33.000Z,7.677419354838704
2023-04-18T04:31:35.000Z,7.677419354838704
2023-04-18T04:32:38.000Z,7.677419354838704
2023-04-18T04:33:40.000Z,7.677419354838704
2023-04-18T04:34:42.000Z,7.677419354838704
2023-04-18T04:35:44.000Z,7.677419354838704
2023-04-18T04:36:47.000Z,7.580645161290317
2023-04-18T04:37:49.000Z,7.774193548387091
2023-04-18T04:38:51.000Z,7.677419354838704
2023-04-18T04:39:53.000Z,7.677419354838704
2023-04-18T04:40:56.000Z,7.677419354838704
2023-04-18T04:41:58.000Z,7.774193548387091
2023-04-18T04:43:00.000Z,7.774193548387091
2023-04-18T04:44:02.000Z,7.774193548387091
2023-04-18T04:45:05.000Z,7.677419354838704
2023-04-18T04:46:07.000Z,7.774193548387091
2023-04-18T04:47:09.000Z,7.774193548387091
2023-04-18T04:48:11.000Z,7.774193548387091
2023-04-18T04:49:13.000Z,7.774193548387091
2023-04-18T04:50:16.000Z,7.774193548387091
2023-04-18T04:51:18.000Z,7.774193548387091
2023-04-18T04:52:20.000Z,7.774193548387091
2023-04-18T04:53:22.000Z,7.774193548387091
2023-04-18T04:54:25.000Z,7.774193548387091
2023-04-18T04:55:27.000Z,7.870967741935478
2023-04-18T04:56:29.000Z,7.870967741935478
2023-04-18T04:57:31.000Z,7.870967741935478
2023-04-18T04:58:34.000Z,7.870967741935478
2023-04-18T04:59:36.000Z,7.870967741935478
2023-04-18T05:00:38.000Z,7.870967741935478
2023-04-18T05:01:41.000Z,7.870967741935478
2023-04-18T05:02:43.000Z,7.870967741935478
2023-04-18T05:03:45.000Z,7.967741935483865
2023-04-18T05:04:47.000Z,7.967741935483865
2023-04-18T05:05:49.000Z,7.967741935483865
2023-04-18T05:06:52.000Z,7.967741935483865
2023-04-18T05:07:54.000Z,7.967741935483865
2023-04-18T05:08:56.000Z,7.870967741935478
2023-04-18T05:09:58.000Z,7.967741935483865
2023-04-18T05:11:01.000Z,7.967741935483865
2023-04-18T05:12:03.000Z,8.064516129032253
2023-04-18T05:13:05.000Z,8.064516129032253
2023-04-18T05:14:08.000Z,8.064516129032253
2023-04-18T05:15:10.000Z,8.16129032258064
2023-04-18T05:16:12.000Z,8.16129032258064
2023-04-18T05:17:15.000Z,8.258064516129028
2023-04-18T05:18:17.000Z,8.258064516129028
2023-04-18T05:19:19.000Z,8.258064516129028
2023-04-18T05:20:21.000Z,8.354838709677416
2023-04-18T05:21:24.000Z,8.451612903225804
2023-04-18T05:22:26.000Z,8.548387096774192
2023-04-18T05:23:28.000Z,8.258064516129028
2023-04-18T05:24:30.000Z,8.354838709677416
2023-04-18T05:25:33.000Z,8.548387096774192
2023-04-18T05:26:35.000Z,8.548387096774192
2023-04-18T05:27:37.000Z,8.741935483870968
2023-04-18T05:28:39.000Z,8.838709677419356
2023-04-18T05:29:42.000Z,8.935483870967744
2023-04-18T05:30:44.000Z,9.032258064516132
2023-04-18T05:31:46.000Z,9.032258064516132
2023-04-18T05:32:48.000Z,9.032258064516132
2023-04-18T05:33:51.000Z,9.032258064516132
2023-04-18T05:34:53.000Z,9.032258064516132
2023-04-18T05:35:55.000Z,9.225806451612907
2023-04-18T05:36:57.000Z,9.12903225806452
2023-04-18T05:38:00.000Z,9.12903225806452
2023-04-18T05:39:02.000Z,9.225806451612907
2023-04-18T05:40:04.000Z,9.516129032258071
2023-04-18T05:41:06.000Z,8.548387096774192
2023-04-18T05:42:09.000Z,8.741935483870968
2023-04-18T05:43:11.000Z,7.967741935483865
2023-04-18T05:44:13.000Z,8.064516129032253
2023-04-18T05:45:15.000Z,8.451612903225804
2023-04-18T05:46:18.000Z,9.225806451612907
2023-04-18T05:47:20.000Z,7.580645161290317
2023-04-18T05:48:22.000Z,7.48387096774193
2023-04-18T05:49:25.000Z,7.387096774193543
2023-04-18T05:50:27.000Z,7.387096774193543
2023-04-18T05:51:29.000Z,7.387096774193543
2023-04-18T05:52:32.000Z,7.48387096774193
2023-04-18T05:53:34.000Z,7.387096774193543
2023-04-18T05:54:36.000Z,7.48387096774193
2023-04-18T05:55:38.000Z,7.48387096774193
2023-04-18T05:56:41.000Z,7.48387096774193
2023-04-18T05:57:43.000Z,7.580645161290317
2023-04-18T05:58:45.000Z,7.580645161290317
2023-04-18T05:59:47.000Z,7.48387096774193
2023-04-18T06:00:50.000Z,7.677419354838704
2023-04-18T06:01:52.000Z,7.677419354838704
2023-04-18T06:02:54.000Z,7.677419354838704
2023-04-18T06:03:56.000Z,7.677419354838704
2023-04-18T06:04:59.000Z,7.774193548387091
2023-04-18T06:06:01.000Z,7.774193548387091
2023-04-18T06:07:03.000Z,7.870967741935478
2023-04-18T06:08:05.000Z,7.967741935483865
2023-04-18T06:09:08.000Z,7.967741935483865
2023-04-18T06:10:10.000Z,7.870967741935478
2023-04-18T06:11:12.000Z,7.580645161290317
2023-04-18T06:12:14.000Z,7.580645161290317
2023-04-18T06:13:17.000Z,7.48387096774193
2023-04-18T06:14:19.000Z,7.48387096774193
2023-04-18T06:15:21.000Z,7.580645161290317
2023-04-18T06:16:24.000Z,7.580645161290317
2023-04-18T06:17:26.000Z,7.580645161290317
2023-04-18T06:18:28.000Z,7.580645161290317
2023-04-18T06:19:30.000Z,7.580645161290317
2023-04-18T06:20:33.000Z,7.677419354838704
2023-04-18T06:21:35.000Z,7.580645161290317
2023-04-18T06:22:37.000Z,7.677419354838704
2023-04-18T06:23:40.000Z,7.677419354838704
2023-04-18T06:24:42.000Z,7.677419354838704
2023-04-18T06:25:44.000Z,7.774193548387091
2023-04-18T06:26:46.000Z,7.774193548387091
2023-04-18T06:27:48.000Z,7.774193548387091
2023-04-18T06:28:51.000Z,7.870967741935478
2023-04-18T06:29:53.000Z,7.870967741935478
2023-04-18T06:30:55.000Z,7.870967741935478
2023-04-18T06:31:57.000Z,7.967741935483865
2023-04-18T06:33:00.000Z,7.967741935483865
2023-04-18T06:34:02.000Z,7.967741935483865
2023-04-18T06:35:04.000Z,8.064516129032253
2023-04-18T06:36:06.000Z,8.16129032258064
2023-04-18T06:37:09.000Z,8.354838709677416
2023-04-18T06:38:11.000Z,9.225806451612907
2023-04-18T06:39:13.000Z,7.870967741935478
2023-04-18T06:40:16.000Z,7.774193548387091
2023-04-18T06:41:18.000Z,7.774193548387091
2023-04-18T06:42:20.000Z,7.870967741935478
2023-04-18T06:43:22.000Z,7.774193548387091
2023-04-18T06:44:25.000Z,7.774193548387091
2023-04-18T06:45:27.000Z,7.774193548387091
2023-04-18T06:46:29.000Z,7.774193548387091
2023-04-18T06:47:31.000Z,7.677419354838704
2023-04-18T06:48:34.000Z,7.774193548387091
2023-04-18T06:49:36.000Z,7.774193548387091
2023-04-18T06:50:38.000Z,7.677419354838704
2023-04-18T06:51:40.000Z,7.774193548387091
2023-04-18T06:52:43.000Z,7.677419354838704
2023-04-18T06:53:45.000Z,7.774193548387091
2023-04-18T06:54:47.000Z,7.677419354838704
2023-04-18T06:55:49.000Z,7.677419354838704
2023-04-18T06:56:52.000Z,7.677419354838704
2023-04-18T06:57:54.000Z,7.774193548387091
2023-04-18T06:58:56.000Z,7.677419354838704
2023-04-18T06:59:58.000Z,7.677419354838704
2023-04-18T07:01:01.000Z,7.677419354838704
2023-04-18T07:02:03.000Z,7.774193548387091
2023-04-18T07:03:05.000Z,7.774193548387091
2023-04-18T07:04:07.000Z,7.774193548387091
2023-04-18T07:05:10.000Z,7.774193548387091
2023-04-18T07:06:12.000Z,7.774193548387091
2023-04-18T07:07:14.000Z,7.677419354838704
2023-04-18T07:08:16.000Z,7.677419354838704
2023-04-18T07:09:19.000Z,7.774193548387091
2023-04-18T07:10:21.000Z,7.774193548387091
2023-04-18T07:11:23.000Z,7.774193548387091
2023-04-18T07:12:25.000Z,7.774193548387091
2023-04-18T07:13:28.000Z,7.677419354838704
2023-04-18T07:14:30.000Z,7.774193548387091
2023-04-18T07:15:32.000Z,7.677419354838704
2023-04-18T07:16:34.000Z,7.774193548387091
2023-04-18T07:17:37.000Z,7.774193548387091
2023-04-18T07:18:39.000Z,7.774193548387091
2023-04-18T07:19:41.000Z,7.677419354838704
2023-04-18T07:20:43.000Z,7.774193548387091
2023-04-18T07:21:46.000Z,7.774193548387091
2023-04-18T07:22:48.000Z,7.774193548387091
2023-04-18T07:23:50.000Z,7.774193548387091
2023-04-18T07:24:52.000Z,7.774193548387091
2023-04-18T07:25:55.000Z,7.774193548387091
2023-04-18T07:26:57.000Z,7.774193548387091
2023-04-18T07:27:59.000Z,7.774193548387091
2023-04-18T07:29:01.000Z,7.774193548387091
2023-04-18T07:30:03.000Z,7.774193548387091
2023-04-18T07:31:06.000Z,7.774193548387091
2023-04-18T07:32:08.000Z,7.774193548387091
2023-04-18T07:33:10.000Z,7.774193548387091
2023-04-18T07:34:13.000Z,7.774193548387091
2023-04-18T07:35:15.000Z,7.774193548387091
2023-04-18T07:36:17.000Z,7.774193548387091
2023-04-18T07:37:19.000Z,7.870967741935478
2023-04-18T07:38:22.000Z,7.774193548387091
2023-04-18T07:39:24.000Z,7.774193548387091
2023-04-18T07:40:26.000Z,7.774193548387091
2023-04-18T07:41:28.000Z,7.774193548387091
2023-04-18T07:42:31.000Z,7.870967741935478
2023-04-18T07:43:33.000Z,7.774193548387091
2023-04-18T07:44:35.000Z,7.870967741935478
2023-04-18T07:45:37.000Z,7.870967741935478
2023-04-18T07:46:40.000Z,7.870967741935478
2023-04-18T07:47:42.000Z,7.870967741935478
2023-04-18T07:48:44.000Z,7.774193548387091
2023-04-18T07:49:46.000Z,7.870967741935478
2023-04-18T07:50:49.000Z,7.967741935483865
2023-04-18T07:51:51.000Z,7.870967741935478
2023-04-18T07:52:53.000Z,7.870967741935478
2023-04-18T07:53:55.000Z,7.870967741935478
2023-04-18T07:54:58.000Z,7.967741935483865
2023-04-18T07:56:00.000Z,7.967741935483865
2023-04-18T07:57:02.000Z,7.967741935483865
2023-04-18T07:58:04.000Z,7.967741935483865
2023-04-18T07:59:07.000Z,7.967741935483865
2023-04-18T08:00:09.000Z,7.967741935483865
2023-04-18T08:01:11.000Z,7.967741935483865
2023-04-18T08:02:14.000Z,7.967741935483865
2023-04-18T08:03:16.000Z,8.064516129032253
2023-04-18T08:04:18.000Z,8.064516129032253
2023-04-18T08:05:20.000Z,8.064516129032253
2023-04-18T08:06:23.000Z,8.064516129032253
2023-04-18T08:07:25.000Z,8.064516129032253
2023-04-18T08:08:27.000Z,7.967741935483865
2023-04-18T08:09:29.000Z,7.967741935483865
2023-04-18T08:10:32.000Z,7.967741935483865
2023-04-18T08:11:34.000Z,7.967741935483865
2023-04-18T08:12:36.000Z,7.870967741935478
2023-04-18T08:13:38.000Z,7.967741935483865
2023-04-18T08:14:41.000Z,7.967741935483865
2023-04-18T08:15:43.000Z,7.870967741935478
2023-04-18T08:16:45.000Z,7.870967741935478
2023-04-18T08:17:47.000Z,7.870967741935478
2023-04-18T08:18:50.000Z,7.967741935483865
2023-04-18T08:19:52.000Z,7.967741935483865
2023-04-18T08:20:54.000Z,7.967741935483865
2023-04-18T08:21:56.000Z,7.870967741935478
2023-04-18T08:22:59.000Z,7.870967741935478
2023-04-18T08:24:01.000Z,7.870967741935478
2023-04-18T08:25:03.000Z,7.967741935483865
2023-04-18T08:26:05.000Z,7.967741935483865
2023-04-18T08:27:08.000Z,7.870967741935478
2023-04-18T08:28:10.000Z,7.967741935483865
2023-04-18T08:29:12.000Z,7.967741935483865
2023-04-18T08:30:14.000Z,7.967741935483865
2023-04-18T08:31:16.000Z,7.870967741935478
2023-04-18T08:32:19.000Z,7.870967741935478
2023-04-18T08:33:21.000Z,7.870967741935478
2023-04-18T08:34:23.000Z,7.967741935483865
2023-04-18T08:35:25.000Z,7.967741935483865
2023-04-18T08:36:28.000Z,7.967741935483865
2023-04-18T08:37:30.000Z,7.967741935483865
2023-04-18T08:38:32.000Z,7.967741935483865
2023-04-18T08:39:35.000Z,7.967741935483865
2023-04-18T08:40:37.000Z,7.967741935483865
2023-04-18T08:41:39.000Z,8.064516129032253
2023-04-18T08:42:41.000Z,8.064516129032253
2023-04-18T08:43:44.000Z,8.16129032258064
2023-04-18T08:44:46.000Z,8.16129032258064
2023-04-18T08:45:48.000Z,8.064516129032253
2023-04-18T08:46:50.000Z,8.16129032258064
2023-04-18T08:47:52.000Z,8.16129032258064
2023-04-18T08:48:55.000Z,8.16129032258064
2023-04-18T08:49:57.000Z,8.16129032258064
2023-04-18T08:50:59.000Z,8.258064516129028
2023-04-18T08:52:02.000Z,8.258064516129028
2023-04-18T08:53:04.000Z,8.354838709677416
2023-04-18T08:54:06.000Z,8.451612903225804
2023-04-18T08:55:08.000Z,8.451612903225804
2023-04-18T08:56:11.000Z,8.548387096774192
2023-04-18T08:57:13.000Z,8.354838709677416
2023-04-18T08:58:15.000Z,8.451612903225804
2023-04-18T08:59:17.000Z,8.451612903225804
2023-04-18T09:00:20.000Z,8.64516129032258
2023-04-18T09:01:22.000Z,8.741935483870968
2023-04-18T09:02:24.000Z,8.838709677419356
2023-04-18T09:03:26.000Z,7.677419354838704
2023-04-18T09:04:28.000Z,7.870967741935478
2023-04-18T09:05:31.000Z,8.064516129032253
2023-04-18T09:06:33.000Z,8.16129032258064
2023-04-18T09:07:35.000Z,8.258064516129028
2023-04-18T09:08:38.000Z,8.451612903225804
2023-04-18T09:09:40.000Z,8.838709677419356
2023-04-18T09:10:42.000Z,7.290322580645156
2023-04-18T09:11:44.000Z,7.193548387096769
2023-04-18T09:12:47.000Z,7.096774193548382
2023-04-18T09:13:49.000Z,7.096774193548382
2023-04-18T09:14:51.000Z,7.096774193548382
2023-04-18T09:15:54.000Z,7.193548387096769
2023-04-18T09:16:56.000Z,7.193548387096769
2023-04-18T09:17:58.000Z,7.290322580645156
2023-04-18T09:19:00.000Z,7.580645161290317
2023-04-18T09:20:02.000Z,7.870967741935478
2023-04-18T09:21:05.000Z,8.064516129032253
2023-04-18T09:22:07.000Z,8.354838709677416
2023-04-18T09:23:09.000Z,9.225806451612907
2023-04-18T09:24:12.000Z,8.064516129032253
2023-04-18T09:25:14.000Z,8.16129032258064
2023-04-18T09:26:16.000Z,8.16129032258064
2023-04-18T09:27:18.000Z,8.16129032258064
2023-04-18T09:28:21.000Z,8.258064516129028
2023-04-18T09:29:23.000Z,8.258064516129028
2023-04-18T09:30:25.000Z,8.354838709677416
2023-04-18T09:31:27.000Z,8.354838709677416
2023-04-18T09:32:30.000Z,8.451612903225804
2023-04-18T09:33:32.000Z,8.548387096774192
2023-04-18T09:34:34.000Z,8.548387096774192
2023-04-18T09:35:37.000Z,8.548387096774192
2023-04-18T09:36:39.000Z,8.451612903225804
2023-04-18T09:37:41.000Z,8.451612903225804
2023-04-18T09:38:44.000Z,8.548387096774192
2023-04-18T09:39:46.000Z,8.548387096774192